createdAt,value
2018-05-04T00:00:10.464Z,66.75
2018-05-04T00:02:38.711Z,67.18
2018-05-04T00:05:06.955Z,67.01
2018-05-04T00:07:35.963Z,67.55
2018-05-04T00:10:04.218Z,67.82
2018-05-04T00:12:32.447Z,67.57
2018-05-04T00:15:01.462Z,68.16
2018-05-04T00:17:30.455Z,68.39
2018-05-04T00:20:00.215Z,68.37
2018-05-04T00:22:28.455Z,68.43
2018-05-04T00:24:56.709Z,68.92
2018-05-04T00:27:24.938Z,68.37
2018-05-04T00:29:53.195Z,68.37
2018-05-04T00:32:21.445Z,68.43
2018-05-04T00:34:50.455Z,68.12
2018-05-04T00:37:18.738Z,68.21
2018-05-04T00:39:47.755Z,68.05
2018-05-04T00:42:15.993Z,69.28
2018-05-04T00:44:44.250Z,69.78
2018-05-04T00:47:12.483Z,69.87
2018-05-04T00:49:41.881Z,69.93
2018-05-04T00:52:10.124Z,70.31
2018-05-04T00:54:38.375Z,70.54
2018-05-04T00:57:06.613Z,70.59
2018-05-04T00:59:34.871Z,70.89
2018-05-04T01:02:04.666Z,71.46
2018-05-04T01:04:32.897Z,72.88
2018-05-04T01:07:01.148Z,73.80
2018-05-04T01:09:29.390Z,74.25
2018-05-04T01:11:57.639Z,75.13
2018-05-04T01:14:26.634Z,75.33
2018-05-04T01:16:54.882Z,75.91
2018-05-04T01:19:23.226Z,76.09
2018-05-04T01:21:52.287Z,76.28
2018-05-04T01:24:20.503Z,76.52
2018-05-04T01:26:48.767Z,76.61
2018-05-04T01:29:17.012Z,77.63
2018-05-04T01:31:45.254Z,77.89
2018-05-04T01:34:13.486Z,78.34
2018-05-04T01:36:42.604Z,78.66
2018-05-04T01:39:10.893Z,78.81
2018-05-04T01:41:39.903Z,79.42
2018-05-04T01:44:08.171Z,79.93
2018-05-04T01:46:37.185Z,80.55
2018-05-04T01:49:06.187Z,81.14
2018-05-04T01:51:35.291Z,81.27
2018-05-04T01:54:04.299Z,81.73
2018-05-04T01:56:33.340Z,81.27
2018-05-04T01:59:01.574Z,81.77
2018-05-04T02:01:29.835Z,81.90
2018-05-04T02:03:58.068Z,81.84
2018-05-04T02:06:26.319Z,82.57
2018-05-04T02:08:54.555Z,82.95
2018-05-04T02:11:23.605Z,82.97
2018-05-04T02:13:51.843Z,83.24
2018-05-04T02:16:20.115Z,83.30
2018-05-04T02:18:48.539Z,83.11
2018-05-04T02:21:17.535Z,83.47
2018-05-04T02:23:46.564Z,83.63
2018-05-04T02:26:14.821Z,83.95
2018-05-04T02:28:43.061Z,83.92
2018-05-04T02:31:11.302Z,84.67
2018-05-04T02:33:40.315Z,85.00
2018-05-04T02:36:09.306Z,85.39
2018-05-04T02:38:37.558Z,85.47
2018-05-04T02:41:05.803Z,85.79
2018-05-04T02:43:34.823Z,85.66
2018-05-04T02:46:03.059Z,85.05
2018-05-04T02:48:31.311Z,85.39
2018-05-04T02:51:00.313Z,85.46
2018-05-04T02:53:28.563Z,85.00
2018-05-04T02:55:56.837Z,84.92
2018-05-04T02:58:25.829Z,84.82
2018-05-04T03:00:54.066Z,84.58
2018-05-04T03:03:23.076Z,84.29
2018-05-04T03:05:52.075Z,83.74
2018-05-04T03:08:21.095Z,83.59
2018-05-04T03:10:50.103Z,83.92
2018-05-04T03:13:18.367Z,83.73
2018-05-04T03:15:46.614Z,83.33
2018-05-04T03:18:14.860Z,83.55
2018-05-04T03:20:43.863Z,83.77
2018-05-04T03:23:12.877Z,84.47
2018-05-04T03:25:41.899Z,85.40
2018-05-04T03:28:10.151Z,86.10
2018-05-04T03:30:39.978Z,85.83
2018-05-04T03:33:08.227Z,86.28
2018-05-04T03:35:36.460Z,86.66
2018-05-04T03:38:04.706Z,86.85
2018-05-04T03:40:32.958Z,86.67
2018-05-04T03:43:01.220Z,87.04
2018-05-04T03:45:29.462Z,87.45
2018-05-04T03:47:57.700Z,87.33
2018-05-04T03:50:25.951Z,87.76
2018-05-04T03:52:54.197Z,87.96
2018-05-04T03:55:23.207Z,88.23
2018-05-04T03:58:09.908Z,88.43
2018-05-04T04:00:56.566Z,88.87
2018-05-04T04:06:34.907Z,89.24
2018-05-04T04:09:03.939Z,88.78
2018-05-04T04:11:32.181Z,88.87
2018-05-04T04:14:00.426Z,88.85
2018-05-04T04:16:28.659Z,88.70
2018-05-04T04:18:56.918Z,88.42
2018-05-04T04:21:25.149Z,88.51
2018-05-04T04:23:54.176Z,88.16
2018-05-04T04:26:22.412Z,88.03
2018-05-04T04:28:50.645Z,88.07
2018-05-04T04:31:18.948Z,88.09
2018-05-04T04:33:47.958Z,87.73
2018-05-04T04:36:16.241Z,87.05
2018-05-04T04:38:44.478Z,86.94
2018-05-04T04:41:12.727Z,86.69
2018-05-04T04:43:40.958Z,85.76
2018-05-04T04:46:09.211Z,84.70
2018-05-04T04:48:37.450Z,85.44
2018-05-04T04:51:05.699Z,86.17
2018-05-04T04:53:33.973Z,85.08
2018-05-04T04:56:02.223Z,85.07
2018-05-04T04:58:31.223Z,81.84
2018-05-04T05:00:59.462Z,83.26
2018-05-04T05:03:27.748Z,84.40
2018-05-04T05:05:55.990Z,83.85
2018-05-04T05:08:24.310Z,82.86
2018-05-04T05:10:52.550Z,81.59
2018-05-04T05:13:20.784Z,80.59
2018-05-04T05:15:49.050Z,79.78
2018-05-04T05:18:17.287Z,78.95
2018-05-04T05:20:45.607Z,79.74
2018-05-04T05:23:13.840Z,79.37
2018-05-04T05:25:42.100Z,78.04
2018-05-04T05:28:10.311Z,76.57
2018-05-04T05:30:38.587Z,76.98
2018-05-04T05:33:06.817Z,76.82
2018-05-04T05:35:35.071Z,75.46
2018-05-04T05:38:04.078Z,75.73
2018-05-04T05:40:33.202Z,74.20
2018-05-04T05:43:01.431Z,73.30
2018-05-04T05:45:29.667Z,73.01
2018-05-04T05:47:57.926Z,72.58
2018-05-04T05:50:26.167Z,72.93
2018-05-04T05:52:54.410Z,72.74
2018-05-04T05:55:23.406Z,69.28
2018-05-04T05:57:51.666Z,67.50
2018-05-04T06:00:19.908Z,63.81
2018-05-04T06:02:48.945Z,62.17
2018-05-04T06:05:17.210Z,62.30
2018-05-04T06:07:45.492Z,61.58
2018-05-04T06:10:14.498Z,59.30
2018-05-04T06:12:43.546Z,59.61
2018-05-04T06:15:11.767Z,61.33
2018-05-04T06:17:40.031Z,60.46
2018-05-04T06:20:08.267Z,62.71
2018-05-04T06:22:37.277Z,64.03
2018-05-04T06:25:06.407Z,64.34
2018-05-04T06:27:35.291Z,65.32
2018-05-04T06:30:04.307Z,64.22
2018-05-04T06:32:32.563Z,65.38
2018-05-04T06:35:00.801Z,65.55
2018-05-04T06:37:29.843Z,64.09
2018-05-04T06:39:58.089Z,62.81
2018-05-04T06:42:26.348Z,62.42
2018-05-04T06:44:55.371Z,63.33
2018-05-04T06:47:24.384Z,60.28
2018-05-04T06:49:52.645Z,60.57
2018-05-04T06:52:20.931Z,57.87
2018-05-04T06:54:49.180Z,59.47
2018-05-04T06:57:17.449Z,58.22
2018-05-04T06:59:46.456Z,58.40
2018-05-04T07:02:14.706Z,58.80
2018-05-04T07:04:42.943Z,59.47
2018-05-04T07:07:11.200Z,59.67
2018-05-04T07:09:39.451Z,57.11
2018-05-04T07:12:07.686Z,57.28
2018-05-04T07:14:35.947Z,56.26
2018-05-04T07:17:04.183Z,52.66
2018-05-04T07:19:32.447Z,52.51
2018-05-04T07:22:00.686Z,51.12
2018-05-04T07:24:28.940Z,54.87
2018-05-04T07:26:57.174Z,54.35
2018-05-04T07:29:25.427Z,55.31
2018-05-04T07:31:53.671Z,55.02
2018-05-04T07:34:22.691Z,52.71
2018-05-04T07:36:51.690Z,52.57
2018-05-04T07:39:20.716Z,51.67
2018-05-04T07:41:48.969Z,51.26
2018-05-04T07:44:17.227Z,50.89
2018-05-04T07:46:46.273Z,50.30
2018-05-04T07:49:15.320Z,50.34
2018-05-04T07:51:43.568Z,50.98
2018-05-04T07:54:11.854Z,51.91
2018-05-04T07:56:40.087Z,52.98
2018-05-04T07:59:08.414Z,53.51
2018-05-04T08:01:37.368Z,53.37
2018-05-04T08:04:05.619Z,52.90
2018-05-04T08:06:33.867Z,52.52
2018-05-04T08:09:02.120Z,50.17
2018-05-04T08:11:31.114Z,49.09
2018-05-04T08:14:00.139Z,48.15
2018-05-04T08:16:29.204Z,49.88
2018-05-04T08:18:58.223Z,48.13
2018-05-04T08:21:26.468Z,49.61
2018-05-04T08:23:54.740Z,51.41
2018-05-04T08:26:23.032Z,53.21
2018-05-04T08:28:51.264Z,52.68
2018-05-04T08:31:19.539Z,52.48
2018-05-04T08:33:47.787Z,51.82
2018-05-04T08:36:16.063Z,52.40
2018-05-04T08:38:45.063Z,50.38
2018-05-04T08:41:14.097Z,51.23
2018-05-04T08:43:42.335Z,50.46
2018-05-04T08:46:10.610Z,52.70
2018-05-04T08:48:38.847Z,54.10
2018-05-04T08:51:07.941Z,54.16
2018-05-04T08:53:36.120Z,52.62
2018-05-04T08:56:05.138Z,52.82
2018-05-04T08:58:34.174Z,50.96
2018-05-04T09:01:03.184Z,50.58
2018-05-04T09:03:31.418Z,48.94
2018-05-04T09:05:59.675Z,49.18
2018-05-04T09:08:27.916Z,48.82
2018-05-04T09:10:56.167Z,48.10
2018-05-04T09:13:24.400Z,48.13
2018-05-04T09:15:53.426Z,49.74
2018-05-04T09:18:21.659Z,47.77
2018-05-04T09:20:49.912Z,48.33
2018-05-04T09:23:19.094Z,48.15
2018-05-04T09:25:48.128Z,46.87
2018-05-04T09:28:16.359Z,46.40
2018-05-04T09:30:45.390Z,45.52
2018-05-04T09:33:13.616Z,46.24
2018-05-04T09:35:41.875Z,47.26
2018-05-04T09:38:10.878Z,47.28
2018-05-04T09:40:39.874Z,47.51
2018-05-04T09:43:08.892Z,48.08
2018-05-04T09:45:37.908Z,47.33
2018-05-04T09:48:06.179Z,46.31
2018-05-04T09:50:35.194Z,47.34
2018-05-04T09:53:04.215Z,47.63
2018-05-04T09:55:32.458Z,47.92
2018-05-04T09:58:00.752Z,49.13
2018-05-04T10:00:28.986Z,47.24
2018-05-04T10:02:57.286Z,46.75
2018-05-04T10:05:25.531Z,46.08
2018-05-04T10:07:54.599Z,46.30
2018-05-04T10:10:22.830Z,46.96
2018-05-04T10:12:51.846Z,46.75
2018-05-04T10:15:20.861Z,46.22
2018-05-04T10:17:49.870Z,47.15
2018-05-04T10:20:18.119Z,46.39
2018-05-04T10:22:46.383Z,46.91
2018-05-04T10:25:14.628Z,47.63
2018-05-04T10:27:43.723Z,45.17
2018-05-04T10:30:12.723Z,45.69
2018-05-04T10:32:40.979Z,47.54
2018-05-04T10:35:09.214Z,46.44
2018-05-04T10:37:38.243Z,46.41
2018-05-04T10:40:06.496Z,46.01
2018-05-04T10:42:34.749Z,44.66
2018-05-04T10:45:03.024Z,44.67
2018-05-04T10:47:31.288Z,44.90
2018-05-04T10:50:00.279Z,45.56
2018-05-04T10:52:29.296Z,45.89
2018-05-04T10:54:58.294Z,46.01
2018-05-04T10:57:27.319Z,45.58
2018-05-04T10:59:55.559Z,45.02
2018-05-04T11:02:23.811Z,43.68
2018-05-04T11:04:52.051Z,44.00
2018-05-04T11:07:20.321Z,44.48
2018-05-04T11:09:48.543Z,46.57
2018-05-04T11:12:17.584Z,43.87
2018-05-04T11:14:45.831Z,45.26
2018-05-04T11:17:14.877Z,45.66
2018-05-04T11:19:43.167Z,46.54
2018-05-04T11:22:11.403Z,44.46
2018-05-04T11:24:39.656Z,44.42
2018-05-04T11:27:07.890Z,43.07
2018-05-04T11:29:36.911Z,43.76
2018-05-04T11:32:05.915Z,41.79
2018-05-04T11:34:34.919Z,43.36
2018-05-04T11:37:03.939Z,44.87
2018-05-04T11:39:32.172Z,45.77
2018-05-04T11:42:01.223Z,44.20
2018-05-04T11:44:30.216Z,41.69
2018-05-04T11:46:59.216Z,42.21
2018-05-04T11:49:27.480Z,44.58
2018-05-04T11:51:55.710Z,46.15
2018-05-04T11:54:24.732Z,43.00
2018-05-04T11:56:52.972Z,44.15
2018-05-04T11:59:21.227Z,43.86
2018-05-04T12:01:49.458Z,43.35
2018-05-04T12:04:17.740Z,43.96
2018-05-04T12:06:45.988Z,44.93
2018-05-04T12:09:14.253Z,45.53
2018-05-04T12:11:43.271Z,45.28
2018-05-04T12:14:11.507Z,42.98
2018-05-04T12:16:39.817Z,43.39
2018-05-04T12:19:08.006Z,43.71
2018-05-04T12:21:36.270Z,44.30
2018-05-04T12:24:05.283Z,45.08
2018-05-04T12:26:33.553Z,43.96
2018-05-04T12:29:01.791Z,44.08
2018-05-04T12:31:30.812Z,42.26
2018-05-04T12:33:59.047Z,43.54
2018-05-04T12:36:27.311Z,42.94
2018-05-04T12:38:55.542Z,41.64
2018-05-04T12:41:23.810Z,42.37
2018-05-04T12:43:52.043Z,42.28
2018-05-04T12:46:21.076Z,43.16
2018-05-04T12:48:49.314Z,44.12
2018-05-04T12:51:18.396Z,42.88
2018-05-04T12:53:46.694Z,43.33
2018-05-04T12:56:14.884Z,41.30
2018-05-04T12:58:43.144Z,43.32
2018-05-04T13:01:11.375Z,43.60
2018-05-04T13:03:39.638Z,43.80
2018-05-04T13:06:07.891Z,42.45
2018-05-04T13:08:36.985Z,42.47
2018-05-04T13:11:06.724Z,44.24
2018-05-04T13:13:35.740Z,43.19
2018-05-04T13:16:03.981Z,43.11
2018-05-04T13:18:32.259Z,42.62
2018-05-04T13:21:00.495Z,42.54
2018-05-04T13:23:28.756Z,42.90
2018-05-04T13:25:56.990Z,43.58
2018-05-04T13:28:25.246Z,42.98
2018-05-04T13:30:54.247Z,43.32
2018-05-04T13:33:23.496Z,44.52
2018-05-04T13:35:51.776Z,43.68
2018-05-04T13:38:20.048Z,43.29
2018-05-04T13:40:49.070Z,43.01
2018-05-04T13:43:17.345Z,44.02
2018-05-04T13:45:45.590Z,44.26
2018-05-04T13:48:13.844Z,44.41
2018-05-04T13:50:42.158Z,44.40
2018-05-04T13:53:10.339Z,44.53
2018-05-04T13:55:38.575Z,44.74
2018-05-04T13:58:07.599Z,45.34
2018-05-04T14:00:35.833Z,45.31
2018-05-04T14:03:04.092Z,45.31
2018-05-04T14:05:32.334Z,46.46
2018-05-04T14:08:00.586Z,45.69
2018-05-04T14:10:28.821Z,45.33
2018-05-04T14:12:57.853Z,44.99
2018-05-04T14:15:26.107Z,46.01
2018-05-04T14:17:54.391Z,46.28
2018-05-04T14:20:22.631Z,46.51
2018-05-04T14:22:50.866Z,47.07
2018-05-04T14:25:19.140Z,46.08
2018-05-04T14:27:47.396Z,47.40
2018-05-04T14:30:15.644Z,47.13
2018-05-04T14:32:43.874Z,47.13
2018-05-04T14:35:12.133Z,47.54
2018-05-04T14:37:41.133Z,47.29
2018-05-04T14:40:09.413Z,46.96
2018-05-04T14:42:37.636Z,46.78
2018-05-04T14:45:05.897Z,46.72
2018-05-04T14:47:34.957Z,47.06
2018-05-04T14:50:03.230Z,46.01
2018-05-04T14:52:31.463Z,46.40
2018-05-04T14:54:59.732Z,45.34
2018-05-04T14:57:27.987Z,45.48
2018-05-04T14:59:56.246Z,45.83
2018-05-04T15:02:25.252Z,44.58
2018-05-04T15:04:54.283Z,43.88
2018-05-04T15:07:22.523Z,44.54
2018-05-04T15:09:50.792Z,43.82
2018-05-04T15:12:19.051Z,43.14
2018-05-04T15:14:47.318Z,43.88
2018-05-04T15:17:16.322Z,43.13
2018-05-04T15:19:45.351Z,42.09
2018-05-04T15:22:13.596Z,42.77
2018-05-04T15:24:41.858Z,42.45
2018-05-04T15:27:10.094Z,41.91
2018-05-04T15:29:39.107Z,41.70
2018-05-04T15:32:08.108Z,42.53
2018-05-04T15:34:37.144Z,43.46
2018-05-04T15:37:05.385Z,43.37
2018-05-04T15:39:33.628Z,43.52
2018-05-04T15:42:01.907Z,42.52
2018-05-04T15:44:30.134Z,42.62
2018-05-04T15:46:58.387Z,42.39
2018-05-04T15:49:26.633Z,43.09
2018-05-04T15:52:00.404Z,43.58
2018-05-04T15:54:28.648Z,42.97
2018-05-04T15:56:57.665Z,43.99
2018-05-04T15:59:26.669Z,44.32
2018-05-04T16:01:55.693Z,44.69
2018-05-04T16:04:24.689Z,44.34
2018-05-04T16:06:53.695Z,44.31
2018-05-04T16:09:22.696Z,44.05
2018-05-04T16:11:51.722Z,44.69
2018-05-04T16:14:19.955Z,43.87
2018-05-04T16:16:48.219Z,44.82
2018-05-04T16:19:16.458Z,44.43
2018-05-04T16:21:45.484Z,44.03
2018-05-04T16:24:14.493Z,43.13
2018-05-04T16:26:42.742Z,42.74
2018-05-04T16:29:10.974Z,42.09
2018-05-04T16:31:39.235Z,42.63
2018-05-04T16:34:08.814Z,41.83
2018-05-04T16:36:37.077Z,42.43
2018-05-04T16:39:05.736Z,41.53
2018-05-04T16:41:34.063Z,40.72
2018-05-04T16:44:03.080Z,40.98
2018-05-04T16:49:32.999Z,41.62
2018-05-04T16:52:02.051Z,40.33
2018-05-04T16:54:30.314Z,40.32
2018-05-04T16:56:58.567Z,40.67
2018-05-04T16:59:26.796Z,40.34
2018-05-04T17:01:55.043Z,40.84
2018-05-04T17:04:23.282Z,41.04
2018-05-04T17:06:52.305Z,41.11
2018-05-04T17:09:20.550Z,40.72
2018-05-04T17:11:48.819Z,41.48
2018-05-04T17:14:17.059Z,41.00
2018-05-04T17:16:45.309Z,40.95
2018-05-04T17:19:13.547Z,40.78
2018-05-04T17:21:41.917Z,40.23
2018-05-04T17:24:10.916Z,40.21
2018-05-04T17:26:39.911Z,40.38
2018-05-04T17:29:08.184Z,40.71
2018-05-04T17:31:36.419Z,41.04
2018-05-04T17:34:04.885Z,40.57
2018-05-04T17:36:33.063Z,40.94
2018-05-04T17:39:02.096Z,41.05
2018-05-04T17:41:31.115Z,40.81
2018-05-04T17:43:59.387Z,40.87
2018-05-04T17:46:27.706Z,40.67
2018-05-04T17:48:55.972Z,41.12
2018-05-04T17:51:24.345Z,41.79
2018-05-04T17:53:53.355Z,41.10
2018-05-04T17:56:22.361Z,41.59
2018-05-04T17:58:51.386Z,42.11
2018-05-04T18:01:19.693Z,42.30
2018-05-04T18:03:51.185Z,42.11
2018-05-04T18:06:19.448Z,42.67
2018-05-04T18:08:47.821Z,42.58
2018-05-04T18:11:16.063Z,42.22
2018-05-04T18:13:44.650Z,42.56
2018-05-04T18:16:14.399Z,43.14
2018-05-04T18:18:43.423Z,42.63
2018-05-04T18:21:11.647Z,43.39
2018-05-04T18:23:40.752Z,43.27
2018-05-04T18:26:08.913Z,44.13
2018-05-04T18:28:37.186Z,43.82
2018-05-04T18:31:06.199Z,44.15
2018-05-04T18:33:35.264Z,44.41
2018-05-04T18:36:03.506Z,44.33
2018-05-04T18:38:31.784Z,44.30
2018-05-04T18:41:00.898Z,44.89
2018-05-04T18:43:29.083Z,45.13
2018-05-04T18:45:58.819Z,45.05
2018-05-04T18:48:28.627Z,45.12
2018-05-04T18:50:57.653Z,45.57
2018-05-04T18:53:25.902Z,45.21
2018-05-04T18:55:55.751Z,45.30
2018-05-04T18:58:24.764Z,45.44
2018-05-04T19:00:53.042Z,45.38
2018-05-04T19:03:22.182Z,46.10
2018-05-04T19:05:50.466Z,45.96
2018-05-04T19:08:18.785Z,45.26
2018-05-04T19:10:47.055Z,45.49
2018-05-04T19:13:15.301Z,45.34
2018-05-04T19:15:44.531Z,45.41
2018-05-04T19:18:12.775Z,45.01
2018-05-04T19:20:41.104Z,45.17
2018-05-04T19:23:09.323Z,45.63
2018-05-04T19:25:37.604Z,45.66
2018-05-04T19:28:05.828Z,46.51
2018-05-04T19:30:34.189Z,45.80
2018-05-04T19:33:02.623Z,45.47
2018-05-04T19:35:30.894Z,46.10
2018-05-04T19:37:59.973Z,46.55
2018-05-04T19:40:28.236Z,46.62
2018-05-04T19:42:57.254Z,47.37
2018-05-04T19:45:25.555Z,47.53
2018-05-04T19:47:53.790Z,47.35
2018-05-04T19:50:22.993Z,47.49
2018-05-04T19:52:51.235Z,47.83
2018-05-04T19:55:19.496Z,47.25
2018-05-04T19:57:48.525Z,47.80
2018-05-04T20:00:16.807Z,48.34
2018-05-04T20:02:45.809Z,48.47
2018-05-04T20:05:14.064Z,49.30
2018-05-04T20:07:42.308Z,49.36
2018-05-04T20:10:10.716Z,48.77
2018-05-04T20:12:38.978Z,49.83
2018-05-04T20:15:07.248Z,50.32
2018-05-04T20:17:36.251Z,51.16
2018-05-04T20:20:05.335Z,51.70
2018-05-04T20:22:33.615Z,51.35
2018-05-04T20:25:01.865Z,51.41
2018-05-04T20:27:30.121Z,52.16
2018-05-04T20:29:58.355Z,52.51
2018-05-04T20:32:26.639Z,53.73
2018-05-04T20:34:55.005Z,50.26
2018-05-04T20:37:23.344Z,49.74
2018-05-04T20:39:53.110Z,50.65
2018-05-04T20:42:22.141Z,51.11
2018-05-04T20:44:50.382Z,51.00
2018-05-04T20:47:18.739Z,51.05
2018-05-04T20:49:47.015Z,50.14
2018-05-04T20:52:16.021Z,49.98
2018-05-04T20:54:44.298Z,49.62
2018-05-04T20:57:13.339Z,49.30
2018-05-04T20:59:41.584Z,49.15
2018-05-04T21:02:10.609Z,48.94
2018-05-04T21:04:39.081Z,49.78
2018-05-04T21:07:08.308Z,49.34
2018-05-04T21:09:36.556Z,49.69
2018-05-04T21:12:04.962Z,49.70
2018-05-04T21:14:33.545Z,50.01
2018-05-04T21:17:01.860Z,50.53
2018-05-04T21:19:31.067Z,50.27
2018-05-04T21:22:00.077Z,51.05
2018-05-04T21:24:29.081Z,50.82
2018-05-04T21:26:58.173Z,50.73
2018-05-04T21:29:26.406Z,51.47
2018-05-04T21:31:54.665Z,50.79
2018-05-04T21:34:23.671Z,51.40
2018-05-04T21:36:52.739Z,51.77
2018-05-04T21:39:21.127Z,51.42
2018-05-04T21:41:49.432Z,51.52
2018-05-04T21:44:17.708Z,51.81
2018-05-04T21:46:45.974Z,52.67
2018-05-04T21:49:14.207Z,53.06
2018-05-04T21:51:44.043Z,53.24
2018-05-04T21:54:13.047Z,53.17
2018-05-04T21:56:42.178Z,52.59
2018-05-04T21:59:15.544Z,53.31
2018-05-04T22:01:43.746Z,54.18
2018-05-04T22:04:12.863Z,54.25
2018-05-04T22:06:41.171Z,54.38
2018-05-04T22:09:11.214Z,52.89
2018-05-04T22:11:41.069Z,52.72
2018-05-04T22:14:10.347Z,53.53
2018-05-04T22:16:38.649Z,53.04
2018-05-04T22:19:08.154Z,53.92
2018-05-04T22:21:37.840Z,54.35
2018-05-04T22:24:06.685Z,54.26
2018-05-04T22:26:39.588Z,54.08
2018-05-04T22:29:08.956Z,54.10
2018-05-04T22:31:37.211Z,54.76
2018-05-04T22:34:05.688Z,54.22
2018-05-04T22:36:36.340Z,54.20
2018-05-04T22:39:08.787Z,53.89
2018-05-04T22:41:38.050Z,54.26
2018-05-04T22:44:07.000Z,53.82
2018-05-04T22:46:40.275Z,53.67
2018-05-04T22:49:09.343Z,53.14
2018-05-04T22:51:41.096Z,53.11
2018-05-04T22:54:11.794Z,53.13
2018-05-04T22:56:41.037Z,52.96
2018-05-04T22:59:09.319Z,52.80
2018-05-04T23:01:37.547Z,52.87
2018-05-04T23:04:07.503Z,52.52
2018-05-04T23:06:35.752Z,52.50
2018-05-04T23:09:06.942Z,52.71
2018-05-04T23:11:35.500Z,52.88
2018-05-04T23:14:03.750Z,52.92
2018-05-04T23:16:32.523Z,53.02
2018-05-04T23:19:00.771Z,53.19
2018-05-04T23:21:29.005Z,53.71
2018-05-04T23:23:57.355Z,54.04
2018-05-04T23:26:25.606Z,54.27
2018-05-04T23:28:53.907Z,54.32
2018-05-04T23:31:22.145Z,53.71
2018-05-04T23:33:51.143Z,53.73
2018-05-04T23:36:20.171Z,54.14
2018-05-04T23:38:48.406Z,54.53
2018-05-04T23:41:16.651Z,54.84
2018-05-04T23:43:44.911Z,54.66
2018-05-04T23:46:13.199Z,54.52
2018-05-04T23:48:41.558Z,54.71
2018-05-04T23:51:09.828Z,55.27
2018-05-04T23:53:38.063Z,54.93
2018-05-04T23:56:06.332Z,54.57
2018-05-04T23:58:34.572Z,54.84
